createdAt,value
2018-12-22T00:00:15.408Z,221.07
2018-12-22T00:02:42.961Z,183.73
2018-12-22T00:05:10.504Z,208.47
2018-12-22T00:07:38.177Z,166.83
2018-12-22T00:10:05.757Z,185.73
2018-12-22T00:12:33.367Z,116.23
2018-12-22T00:15:01.438Z,115.53
2018-12-22T00:17:28.981Z,180.37
2018-12-22T00:19:56.539Z,137.90
2018-12-22T00:22:24.217Z,168.87
2018-12-22T00:24:51.793Z,160.00
2018-12-22T00:27:19.360Z,172.27
2018-12-22T00:29:47.160Z,187.23
2018-12-22T00:32:14.699Z,214.07
2018-12-22T00:34:42.303Z,208.10
2018-12-22T00:37:10.937Z,193.93
2018-12-22T00:39:38.493Z,139.80
2018-12-22T00:42:06.066Z,133.67
2018-12-22T00:44:34.595Z,121.87
2018-12-22T00:47:02.150Z,232.23
2018-12-22T00:49:29.700Z,240.00
2018-12-22T00:51:57.380Z,141.27
2018-12-22T00:54:24.951Z,199.43
2018-12-22T00:56:52.512Z,148.97
2018-12-22T00:59:20.100Z,165.43
2018-12-22T01:01:47.673Z,176.13
2018-12-22T01:04:15.242Z,196.23
2018-12-22T01:06:42.942Z,155.77
2018-12-22T01:09:10.510Z,164.83
2018-12-22T01:11:38.041Z,201.27
2018-12-22T01:14:05.684Z,262.73
2018-12-22T01:16:33.270Z,200.53
2018-12-22T01:19:00.784Z,189.83
2018-12-22T01:21:28.398Z,228.97
2018-12-22T01:23:55.950Z,257.73
2018-12-22T01:26:23.529Z,155.17
2018-12-22T01:28:51.187Z,188.70
2018-12-22T01:31:18.738Z,161.77
2018-12-22T01:33:46.280Z,142.40
2018-12-22T01:36:13.889Z,104.80
2018-12-22T01:38:41.444Z,90.57
2018-12-22T01:41:08.977Z,73.27
2018-12-22T01:43:36.702Z,77.07
2018-12-22T01:46:04.293Z,86.90
2018-12-22T01:48:31.860Z,87.83
2018-12-22T01:50:59.553Z,64.83
2018-12-22T01:53:27.110Z,76.83
2018-12-22T01:55:54.656Z,68.83
2018-12-22T01:58:22.268Z,67.97
2018-12-22T02:00:49.816Z,91.90
2018-12-22T02:03:17.417Z,110.27
2018-12-22T02:05:45.153Z,155.87
2018-12-22T02:08:12.699Z,128.47
2018-12-22T02:10:40.245Z,89.97
2018-12-22T02:13:07.810Z,68.90
2018-12-22T02:15:35.386Z,92.20
2018-12-22T02:18:03.019Z,128.87
2018-12-22T02:20:30.713Z,109.30
2018-12-22T02:22:58.241Z,166.10
2018-12-22T02:25:25.796Z,154.80
2018-12-22T02:27:53.588Z,138.30
2018-12-22T02:30:21.168Z,104.20
2018-12-22T02:32:48.688Z,114.93
2018-12-22T02:35:16.637Z,103.37
2018-12-22T02:37:44.225Z,135.47
2018-12-22T02:40:11.792Z,118.67
2018-12-22T02:42:54.670Z,84.10
2018-12-22T02:45:22.236Z,146.93
2018-12-22T02:47:49.780Z,114.63
2018-12-22T02:50:17.503Z,203.23
2018-12-22T02:52:45.125Z,135.73
2018-12-22T02:55:12.688Z,129.07
2018-12-22T02:57:40.412Z,156.77
2018-12-22T03:00:08.047Z,89.43
2018-12-22T03:02:35.627Z,79.43
2018-12-22T03:05:03.406Z,92.70
2018-12-22T03:07:30.928Z,153.03
2018-12-22T03:09:58.485Z,110.83
2018-12-22T03:12:30.604Z,116.40
2018-12-22T03:14:58.289Z,94.70
2018-12-22T03:17:25.797Z,139.00
2018-12-22T03:19:53.814Z,62.30
2018-12-22T03:22:21.370Z,81.50
2018-12-22T03:24:48.918Z,82.07
2018-12-22T03:27:16.699Z,69.63
2018-12-22T03:29:44.277Z,72.30
2018-12-22T03:32:11.835Z,74.83
2018-12-22T03:34:39.774Z,113.57
2018-12-22T03:37:07.329Z,121.13
2018-12-22T03:39:34.879Z,117.80
2018-12-22T03:42:02.693Z,116.00
2018-12-22T03:44:30.236Z,119.07
2018-12-22T03:46:57.797Z,143.87
2018-12-22T03:49:25.496Z,168.27
2018-12-22T03:51:53.068Z,183.60
2018-12-22T03:54:20.642Z,93.77
2018-12-22T03:56:48.334Z,196.33
2018-12-22T03:59:24.543Z,174.17
2018-12-22T04:01:43.521Z,132.17
2018-12-22T04:04:11.204Z,193.57
2018-12-22T04:06:39.193Z,173.60
2018-12-22T04:09:09.010Z,243.53
2018-12-22T04:11:34.477Z,173.40
2018-12-22T04:14:02.086Z,232.73
2018-12-22T04:16:29.654Z,148.53
2018-12-22T04:18:57.242Z,207.83
2018-12-22T04:21:24.804Z,159.87
2018-12-22T04:23:52.387Z,143.33
2018-12-22T04:26:20.257Z,182.60
2018-12-22T04:28:47.812Z,170.13
2018-12-22T04:31:15.358Z,188.47
2018-12-22T04:33:43.232Z,167.63
2018-12-22T04:36:10.768Z,223.40
2018-12-22T04:38:38.334Z,156.93
2018-12-22T04:41:06.965Z,208.00
2018-12-22T04:43:34.560Z,198.37
2018-12-22T04:46:02.097Z,174.20
2018-12-22T04:48:29.807Z,228.50
2018-12-22T04:50:57.366Z,219.10
2018-12-22T04:53:24.914Z,248.80
2018-12-22T04:55:52.601Z,278.50
2018-12-22T04:58:20.150Z,227.07
2018-12-22T05:00:47.708Z,208.40
2018-12-22T05:03:15.305Z,268.17
2018-12-22T05:05:42.846Z,241.20
2018-12-22T05:08:10.434Z,269.20
2018-12-22T05:10:39.211Z,281.30
2018-12-22T05:13:06.737Z,190.27
2018-12-22T05:15:34.293Z,192.87
2018-12-22T05:18:01.948Z,812.67
2018-12-22T05:20:29.515Z,278.63
2018-12-22T05:22:57.090Z,165.37
2018-12-22T05:25:24.819Z,195.77
2018-12-22T05:27:52.359Z,208.53
2018-12-22T05:30:19.899Z,258.67
2018-12-22T05:32:49.433Z,198.93
2018-12-22T05:35:16.988Z,216.17
2018-12-22T05:37:44.553Z,227.40
2018-12-22T05:40:12.452Z,212.17
2018-12-22T05:42:40.019Z,220.00
2018-12-22T05:45:07.572Z,270.00
2018-12-22T05:47:35.449Z,264.10
2018-12-22T05:50:03.011Z,251.40
2018-12-22T05:52:30.577Z,201.53
2018-12-22T05:54:58.326Z,223.40
2018-12-22T05:57:25.863Z,237.20
2018-12-22T06:00:00.404Z,275.60
2018-12-22T06:02:21.071Z,222.60
2018-12-22T06:04:48.627Z,190.67
2018-12-22T06:07:16.227Z,204.30
2018-12-22T06:09:43.943Z,249.40
2018-12-22T06:12:11.521Z,235.03
2018-12-22T06:14:39.044Z,210.40
2018-12-22T06:17:06.742Z,221.73
2018-12-22T06:19:34.310Z,259.30
2018-12-22T06:22:01.849Z,232.80
2018-12-22T06:24:29.762Z,263.20
2018-12-22T06:26:57.323Z,260.03
2018-12-22T06:29:24.844Z,254.73
2018-12-22T06:31:52.956Z,228.43
2018-12-22T06:34:20.501Z,263.30
2018-12-22T06:36:48.080Z,181.17
2018-12-22T06:39:15.942Z,260.77
2018-12-22T06:41:43.544Z,180.23
2018-12-22T06:44:11.129Z,239.03
2018-12-22T06:46:38.876Z,182.93
2018-12-22T06:49:06.445Z,214.50
2018-12-22T06:51:34.014Z,210.07
2018-12-22T06:54:01.864Z,208.73
2018-12-22T06:56:29.441Z,209.63
2018-12-22T06:58:57.030Z,201.63
2018-12-22T07:01:24.834Z,133.30
2018-12-22T07:03:52.417Z,149.17
2018-12-22T07:06:20.013Z,139.77
2018-12-22T07:08:47.676Z,153.90
2018-12-22T07:11:15.215Z,212.23
2018-12-22T07:13:42.768Z,309.77
2018-12-22T07:16:10.410Z,290.07
2018-12-22T07:18:37.949Z,167.23
2018-12-22T07:21:05.517Z,227.43
2018-12-22T07:23:33.309Z,212.37
2018-12-22T07:26:00.868Z,200.97
2018-12-22T07:28:28.428Z,149.63
2018-12-22T07:30:56.239Z,125.97
2018-12-22T07:33:23.796Z,92.73
2018-12-22T07:35:51.381Z,256.63
2018-12-22T07:38:19.285Z,142.73
2018-12-22T07:40:46.836Z,149.60
2018-12-22T07:43:14.378Z,148.87
2018-12-22T07:45:42.295Z,208.40
2018-12-22T07:48:09.861Z,190.83
2018-12-22T07:50:37.409Z,177.40
2018-12-22T07:53:05.107Z,125.87
2018-12-22T07:55:32.703Z,94.37
2018-12-22T07:58:00.257Z,129.03
2018-12-22T08:00:34.827Z,102.40
2018-12-22T08:02:55.556Z,97.10
2018-12-22T08:05:23.132Z,94.57
2018-12-22T08:07:50.836Z,102.87
2018-12-22T08:10:18.403Z,166.93
2018-12-22T08:12:53.669Z,94.23
2018-12-22T08:15:21.237Z,120.37
2018-12-22T08:17:48.787Z,123.23
2018-12-22T08:20:16.481Z,144.07
2018-12-22T08:22:44.021Z,185.60
2018-12-22T08:25:11.590Z,166.27
2018-12-22T08:27:39.513Z,195.40
2018-12-22T08:30:07.127Z,163.60
2018-12-22T08:32:34.720Z,139.90
2018-12-22T08:35:02.617Z,129.50
2018-12-22T08:37:30.194Z,113.93
2018-12-22T08:39:57.736Z,133.00
2018-12-22T08:42:25.347Z,183.10
2018-12-22T08:44:52.891Z,159.20
2018-12-22T08:47:20.466Z,151.20
2018-12-22T08:49:48.193Z,159.47
2018-12-22T08:52:15.720Z,162.50
2018-12-22T08:54:43.270Z,139.90
2018-12-22T08:57:10.972Z,132.23
2018-12-22T08:59:38.548Z,149.80
2018-12-22T09:02:06.123Z,140.80
2018-12-22T09:04:34.025Z,190.57
2018-12-22T09:07:01.605Z,180.87
2018-12-22T09:09:29.155Z,154.03
2018-12-22T09:11:56.874Z,253.57
2018-12-22T09:14:24.441Z,129.10
2018-12-22T09:16:52.012Z,79.50
2018-12-22T09:19:20.018Z,79.07
2018-12-22T09:21:47.570Z,73.73
2018-12-22T09:24:15.131Z,71.83
2018-12-22T09:26:42.835Z,70.43
2018-12-22T09:29:10.403Z,74.93
2018-12-22T09:31:37.954Z,72.37
2018-12-22T09:34:13.044Z,72.57
2018-12-22T09:36:33.150Z,71.63
2018-12-22T09:39:00.709Z,66.07
2018-12-22T09:41:28.339Z,70.70
2018-12-22T09:43:55.902Z,67.20
2018-12-22T09:46:23.447Z,65.90
2018-12-22T09:48:52.224Z,70.97
2018-12-22T09:51:19.802Z,73.70
2018-12-22T09:53:47.353Z,71.33
2018-12-22T09:56:14.954Z,70.33
2018-12-22T09:58:42.509Z,86.90
2018-12-22T10:01:10.064Z,69.70
2018-12-22T10:03:37.754Z,66.50
2018-12-22T10:06:05.319Z,80.07
2018-12-22T10:08:32.901Z,71.13
2018-12-22T10:11:00.599Z,64.90
2018-12-22T10:13:28.486Z,63.50
2018-12-22T10:15:56.049Z,70.80
2018-12-22T10:18:23.686Z,76.53
2018-12-22T10:20:51.218Z,83.23
2018-12-22T10:23:18.784Z,91.37
2018-12-22T10:25:46.521Z,96.93
2018-12-22T10:28:14.076Z,104.57
2018-12-22T10:30:41.620Z,79.57
2018-12-22T10:33:09.523Z,82.47
2018-12-22T10:35:37.092Z,89.93
2018-12-22T10:38:04.630Z,87.30
2018-12-22T10:40:32.323Z,88.17
2018-12-22T10:42:59.874Z,86.43
2018-12-22T10:45:27.426Z,91.20
2018-12-22T10:47:55.005Z,82.53
2018-12-22T10:50:22.529Z,94.50
2018-12-22T10:52:54.923Z,94.73
2018-12-22T10:55:22.505Z,94.20
2018-12-22T10:57:50.072Z,94.63
2018-12-22T11:00:17.774Z,92.47
2018-12-22T11:02:45.353Z,98.33
2018-12-22T11:05:12.957Z,87.27
2018-12-22T11:07:40.663Z,94.30
2018-12-22T11:10:08.340Z,93.47
2018-12-22T11:12:35.897Z,85.20
2018-12-22T11:15:03.597Z,104.90
2018-12-22T11:17:31.181Z,197.73
2018-12-22T11:19:58.705Z,126.30
2018-12-22T11:22:39.312Z,116.80
2018-12-22T11:25:10.457Z,108.13
2018-12-22T11:27:38.016Z,83.00
2018-12-22T11:30:05.843Z,86.77
2018-12-22T11:32:33.385Z,89.83
2018-12-22T11:35:00.992Z,133.90
2018-12-22T11:37:28.696Z,100.50
2018-12-22T11:39:56.263Z,111.13
2018-12-22T11:42:36.311Z,91.57
2018-12-22T11:45:03.950Z,82.13
2018-12-22T11:47:31.557Z,93.77
2018-12-22T11:49:59.244Z,99.80
2018-12-22T11:52:26.797Z,111.03
2018-12-22T11:54:54.347Z,80.47
2018-12-22T11:57:22.249Z,92.33
2018-12-22T11:59:49.807Z,94.60
2018-12-22T12:02:17.392Z,96.33
2018-12-22T12:04:44.957Z,91.07
2018-12-22T12:07:12.521Z,84.50
2018-12-22T12:09:40.098Z,79.07
2018-12-22T12:12:08.043Z,88.20
2018-12-22T12:14:35.654Z,70.00
2018-12-22T12:17:03.248Z,70.00
2018-12-22T12:19:31.129Z,73.77
2018-12-22T12:21:58.697Z,103.83
2018-12-22T12:24:26.294Z,119.93
2018-12-22T12:26:54.055Z,96.40
2018-12-22T12:29:21.609Z,79.70
2018-12-22T12:31:52.200Z,89.83
2018-12-22T12:34:17.213Z,90.73
2018-12-22T12:36:44.772Z,99.23
2018-12-22T12:39:12.346Z,85.30
2018-12-22T12:41:39.985Z,91.07
2018-12-22T12:44:07.561Z,80.33
2018-12-22T12:46:36.037Z,85.30
2018-12-22T12:49:03.908Z,79.37
2018-12-22T12:51:31.473Z,87.43
2018-12-22T12:53:59.069Z,77.07
2018-12-22T12:56:26.903Z,90.40
2018-12-22T12:58:54.485Z,97.70
2018-12-22T13:01:22.025Z,97.60
2018-12-22T13:03:49.826Z,85.23
2018-12-22T13:06:17.396Z,85.00
2018-12-22T13:08:44.978Z,74.53
2018-12-22T13:11:12.731Z,78.47
2018-12-22T13:13:40.377Z,73.53
2018-12-22T13:16:07.949Z,70.53
2018-12-22T13:18:35.680Z,69.17
2018-12-22T13:21:03.292Z,72.40
2018-12-22T13:23:30.851Z,86.33
2018-12-22T13:25:58.587Z,78.13
2018-12-22T13:28:26.155Z,77.53
2018-12-22T13:30:53.734Z,88.23
2018-12-22T13:33:21.680Z,165.67
2018-12-22T13:35:48.971Z,66.60
2018-12-22T13:38:16.544Z,75.27
2018-12-22T13:40:44.501Z,75.10
2018-12-22T13:43:12.085Z,74.87
2018-12-22T13:45:39.655Z,78.93
2018-12-22T13:48:07.604Z,76.03
2018-12-22T13:50:35.042Z,75.43
2018-12-22T13:53:02.556Z,84.73
2018-12-22T13:55:30.233Z,79.73
2018-12-22T13:57:57.876Z,81.13
2018-12-22T14:00:25.486Z,82.30
2018-12-22T14:02:53.208Z,83.23
2018-12-22T14:05:22.337Z,78.97
2018-12-22T14:07:49.896Z,76.90
2018-12-22T14:10:17.677Z,81.17
2018-12-22T14:12:45.259Z,81.07
2018-12-22T14:15:14.796Z,83.87
2018-12-22T14:17:42.605Z,83.93
2018-12-22T14:20:10.206Z,86.00
2018-12-22T14:22:39.855Z,86.73
2018-12-22T14:25:09.168Z,89.73
2018-12-22T14:27:36.732Z,86.10
2018-12-22T14:30:04.318Z,84.53
2018-12-22T14:32:32.037Z,84.80
2018-12-22T14:34:59.659Z,91.30
2018-12-22T14:37:27.209Z,94.13
2018-12-22T14:39:55.125Z,87.83
2018-12-22T14:42:22.686Z,88.03
2018-12-22T14:44:50.237Z,92.67
2018-12-22T14:47:18.234Z,91.53
2018-12-22T14:49:45.733Z,104.80
2018-12-22T14:52:13.315Z,100.10
2018-12-22T14:54:40.946Z,113.23
2018-12-22T14:57:08.527Z,105.73
2018-12-22T14:59:36.066Z,93.80
2018-12-22T15:02:04.200Z,104.37
2018-12-22T15:04:33.830Z,94.23
2018-12-22T15:06:59.485Z,89.57
2018-12-22T15:09:27.186Z,103.37
2018-12-22T15:11:54.770Z,89.37
2018-12-22T15:14:22.340Z,94.50
2018-12-22T15:16:50.262Z,102.27
2018-12-22T15:19:17.863Z,103.47
2018-12-22T15:21:45.453Z,101.40
2018-12-22T15:24:13.073Z,96.70
2018-12-22T15:26:40.625Z,103.03
2018-12-22T15:29:08.185Z,112.67
2018-12-22T15:31:36.045Z,125.67
2018-12-22T15:34:03.638Z,119.90
2018-12-22T15:36:31.249Z,120.67
2018-12-22T15:38:58.887Z,127.53
2018-12-22T15:41:26.447Z,133.73
2018-12-22T15:43:54.031Z,154.50
2018-12-22T15:46:21.696Z,169.63
2018-12-22T15:48:49.269Z,167.03
2018-12-22T15:51:16.806Z,134.97
2018-12-22T15:53:44.424Z,134.50
2018-12-22T15:56:12.004Z,121.67
2018-12-22T15:58:39.578Z,240.43
2018-12-22T16:01:07.501Z,306.17
2018-12-22T16:03:35.117Z,301.73
2018-12-22T16:06:02.703Z,341.47
2018-12-22T16:08:30.444Z,333.27
2018-12-22T16:10:58.001Z,265.40
2018-12-22T16:13:25.537Z,361.37
2018-12-22T16:15:53.274Z,440.97
2018-12-22T16:18:20.894Z,514.10
2018-12-22T16:20:48.490Z,289.77
2018-12-22T16:23:16.232Z,288.50
2018-12-22T16:25:43.807Z,353.67
2018-12-22T16:28:11.420Z,386.00
2018-12-22T16:30:40.252Z,400.63
2018-12-22T16:33:07.828Z,345.03
2018-12-22T16:35:35.397Z,369.20
2018-12-22T16:38:03.004Z,372.20
2018-12-22T16:40:30.591Z,360.40
2018-12-22T16:42:58.155Z,415.63
2018-12-22T16:45:25.823Z,416.53
2018-12-22T16:47:53.404Z,399.90
2018-12-22T16:50:20.938Z,410.83
2018-12-22T16:52:48.832Z,369.47
2018-12-22T16:55:16.451Z,338.80
2018-12-22T16:57:56.837Z,359.73
2018-12-22T17:00:26.212Z,403.53
2018-12-22T17:02:53.820Z,350.40
2018-12-22T17:05:21.775Z,398.07
2018-12-22T17:07:49.382Z,433.47
2018-12-22T17:10:16.975Z,387.47
2018-12-22T17:12:58.093Z,458.43
2018-12-22T17:15:25.695Z,410.23
2018-12-22T17:17:53.236Z,684.60
2018-12-22T17:20:21.097Z,445.63
2018-12-22T17:22:54.385Z,319.33
2018-12-22T17:25:22.334Z,257.67
2018-12-22T17:27:49.890Z,273.73
2018-12-22T17:30:17.460Z,298.90
2018-12-22T17:32:45.249Z,326.73
2018-12-22T17:35:12.875Z,337.30
2018-12-22T17:37:40.405Z,351.70
2018-12-22T17:40:09.721Z,325.97
2018-12-22T17:42:42.103Z,380.17
2018-12-22T17:45:09.773Z,431.37
2018-12-22T17:47:37.324Z,508.50
2018-12-22T17:50:05.028Z,554.13
2018-12-22T17:52:33.999Z,341.23
2018-12-22T17:55:01.594Z,337.23
2018-12-22T17:57:29.229Z,358.03
2018-12-22T17:59:56.946Z,429.03
2018-12-22T18:02:24.584Z,447.00
2018-12-22T18:04:52.129Z,528.87
2018-12-22T18:07:19.952Z,475.90
2018-12-22T18:09:47.546Z,446.17
2018-12-22T18:12:15.104Z,506.13
2018-12-22T18:14:43.050Z,539.37
2018-12-22T18:17:10.607Z,515.40
2018-12-22T18:19:38.197Z,436.67
2018-12-22T18:22:06.026Z,465.07
2018-12-22T18:24:33.612Z,406.73
2018-12-22T18:27:01.166Z,370.17
2018-12-22T18:29:28.806Z,385.87
2018-12-22T18:31:56.366Z,316.33
2018-12-22T18:34:23.909Z,304.67
2018-12-22T18:36:51.792Z,246.30
2018-12-22T18:39:19.356Z,263.80
2018-12-22T18:41:46.921Z,269.93
2018-12-22T18:44:14.646Z,314.37
2018-12-22T18:46:42.189Z,262.03
2018-12-22T18:49:09.732Z,395.93
2018-12-22T18:51:37.641Z,387.00
2018-12-22T18:54:05.202Z,379.30
2018-12-22T18:56:32.808Z,443.53
2018-12-22T18:59:00.499Z,518.53
2018-12-22T19:01:28.081Z,459.63
2018-12-22T19:03:55.653Z,429.07
2018-12-22T19:06:23.423Z,449.70
2018-12-22T19:08:50.979Z,382.63
2018-12-22T19:11:18.707Z,349.37
2018-12-22T19:13:46.400Z,366.87
2018-12-22T19:16:13.965Z,368.87
2018-12-22T19:18:41.530Z,424.13
2018-12-22T19:21:09.251Z,369.40
2018-12-22T19:23:36.818Z,365.03
2018-12-22T19:26:04.392Z,393.50
2018-12-22T19:28:32.193Z,513.60
2018-12-22T19:30:59.771Z,461.53
2018-12-22T19:33:27.346Z,434.07
2018-12-22T19:35:55.005Z,589.70
2018-12-22T19:38:22.563Z,421.90
2018-12-22T19:40:50.149Z,475.60
2018-12-22T19:43:17.874Z,601.30
2018-12-22T19:45:45.467Z,449.00
2018-12-22T19:48:13.104Z,511.47
2018-12-22T19:50:40.882Z,533.23
2018-12-22T19:53:08.456Z,472.90
2018-12-22T19:55:36.029Z,383.77
2018-12-22T19:58:04.151Z,372.03
2018-12-22T20:00:31.713Z,513.10
2018-12-22T20:02:59.292Z,471.97
2018-12-22T20:05:26.901Z,413.37
2018-12-22T20:07:54.456Z,309.40
2018-12-22T20:10:22.027Z,249.50
2018-12-22T20:12:50.041Z,303.93
2018-12-22T20:15:17.618Z,363.93
2018-12-22T20:17:45.193Z,304.10
2018-12-22T20:20:13.018Z,395.53
2018-12-22T20:22:40.581Z,381.70
2018-12-22T20:25:08.192Z,405.63
2018-12-22T20:27:35.922Z,404.20
2018-12-22T20:30:03.548Z,451.23
2018-12-22T20:32:31.117Z,447.60
2018-12-22T20:34:58.921Z,427.50
2018-12-22T20:37:26.490Z,434.00
2018-12-22T20:39:54.067Z,603.60
2018-12-22T20:42:21.769Z,451.20
2018-12-22T20:44:49.321Z,369.03
2018-12-22T20:47:16.969Z,295.97
2018-12-22T20:49:44.560Z,330.37
2018-12-22T20:52:12.115Z,242.93
2018-12-22T20:54:39.653Z,346.80
2018-12-22T20:57:07.370Z,372.57
2018-12-22T20:59:34.947Z,314.37
2018-12-22T21:02:02.563Z,252.60
2018-12-22T21:04:30.186Z,228.70
2018-12-22T21:06:57.761Z,260.77
2018-12-22T21:09:25.322Z,195.53
2018-12-22T21:11:53.113Z,316.60
2018-12-22T21:14:20.700Z,200.70
2018-12-22T21:16:48.298Z,289.73
2018-12-22T21:19:16.034Z,267.27
2018-12-22T21:21:43.635Z,305.80
2018-12-22T21:24:11.213Z,238.17
2018-12-22T21:26:38.968Z,319.20
2018-12-22T21:29:06.555Z,394.10
2018-12-22T21:31:34.083Z,394.63
2018-12-22T21:34:01.829Z,413.17
2018-12-22T21:36:29.390Z,342.20
2018-12-22T21:38:56.918Z,353.23
2018-12-22T21:41:24.599Z,323.20
2018-12-22T21:43:52.190Z,305.17
2018-12-22T21:46:19.782Z,211.67
2018-12-22T21:48:47.689Z,200.23
2018-12-22T21:51:15.249Z,196.30
2018-12-22T21:53:42.809Z,150.37
2018-12-22T21:56:10.398Z,190.13
2018-12-22T21:58:37.959Z,210.87
2018-12-22T22:01:05.527Z,286.67
2018-12-22T22:03:33.228Z,263.00
2018-12-22T22:06:00.797Z,203.50
2018-12-22T22:08:28.322Z,183.03
2018-12-22T22:10:55.969Z,147.73
2018-12-22T22:13:23.853Z,207.37
2018-12-22T22:15:51.433Z,229.33
2018-12-22T22:18:19.306Z,155.50
2018-12-22T22:20:46.856Z,135.50
2018-12-22T22:23:18.864Z,149.43
2018-12-22T22:25:42.199Z,136.00
2018-12-22T22:28:09.774Z,191.80
2018-12-22T22:30:37.360Z,196.33
2018-12-22T22:33:04.986Z,170.00
2018-12-22T22:35:32.536Z,176.67
2018-12-22T22:38:00.114Z,196.60
2018-12-22T22:40:27.741Z,195.43
2018-12-22T22:42:55.310Z,134.60
2018-12-22T22:45:22.925Z,165.67
2018-12-22T22:47:50.546Z,131.77
2018-12-22T22:50:18.093Z,184.80
2018-12-22T22:52:45.639Z,167.13
2018-12-22T22:55:13.562Z,591.80
2018-12-22T22:57:41.188Z,203.27
2018-12-22T23:00:08.823Z,161.63
2018-12-22T23:02:53.621Z,193.40
2018-12-22T23:05:21.417Z,170.17
2018-12-22T23:07:48.948Z,299.70
2018-12-22T23:10:16.500Z,201.83
2018-12-22T23:13:03.385Z,188.57
2018-12-22T23:15:30.945Z,106.77
2018-12-22T23:17:58.508Z,112.07
2018-12-22T23:20:26.166Z,99.53
2018-12-22T23:22:53.748Z,93.20
2018-12-22T23:25:21.320Z,77.37
2018-12-22T23:27:49.129Z,87.40
2018-12-22T23:30:16.678Z,76.37
2018-12-22T23:32:44.232Z,112.20
2018-12-22T23:35:12.139Z,136.63
2018-12-22T23:37:39.669Z,202.20
2018-12-22T23:40:07.265Z,151.67
2018-12-22T23:42:35.901Z,148.60
2018-12-22T23:45:03.613Z,180.33
2018-12-22T23:47:31.092Z,116.33
2018-12-22T23:49:58.776Z,115.20
2018-12-22T23:52:26.342Z,127.07
2018-12-22T23:54:53.877Z,110.80
2018-12-22T23:57:21.546Z,93.40
2018-12-22T23:59:49.097Z,105.97
